sensor_id;sensor_type;location;lat;lon;timestamp;pressure;altitude;pressure_sealevel;temperature;humidity
61870;BME280;47810;42.264;23.826;2024-03-22T00:00:33;93870.78;;;3.81;75.94
61870;BME280;47810;42.264;23.826;2024-03-22T00:03:00;93870.78;;;3.81;76.89
61870;BME280;47810;42.264;23.826;2024-03-22T00:05:29;93868.22;;;3.58;77.82
61870;BME280;47810;42.264;23.826;2024-03-22T00:08:01;93868.34;;;3.55;78.83
61870;BME280;47810;42.264;23.826;2024-03-22T00:10:39;93865.53;;;3.37;77.70
61870;BME280;47810;42.264;23.826;2024-03-22T00:13:07;93874.94;;;3.18;77.20
61870;BME280;47810;42.264;23.826;2024-03-22T00:15:47;93862.22;;;3.09;75.33
61870;BME280;47810;42.264;23.826;2024-03-22T00:21:33;93853.94;;;3.21;74.82
61870;BME280;47810;42.264;23.826;2024-03-22T00:24:02;93857.84;;;3.33;74.08
61870;BME280;47810;42.264;23.826;2024-03-22T00:26:45;93857.56;;;3.17;73.90
61870;BME280;47810;42.264;23.826;2024-03-22T00:29:20;93844.38;;;3.21;77.31
61870;BME280;47810;42.264;23.826;2024-03-22T00:31:48;93852.75;;;3.30;75.33
61870;BME280;47810;42.264;23.826;2024-03-22T00:34:27;93860.75;;;3.25;75.15
61870;BME280;47810;42.264;23.826;2024-03-22T00:37:00;93860.53;;;3.31;74.55
61870;BME280;47810;42.264;23.826;2024-03-22T00:39:40;93860.66;;;3.28;73.61
61870;BME280;47810;42.264;23.826;2024-03-22T00:42:13;93863.25;;;3.28;72.82
61870;BME280;47810;42.264;23.826;2024-03-22T00:44:49;93872.19;;;3.21;71.08
61870;BME280;47810;42.264;23.826;2024-03-22T00:47:24;93867.22;;;3.15;69.50
61870;BME280;47810;42.264;23.826;2024-03-22T00:49:57;93859.50;;;3.12;68.60
61870;BME280;47810;42.264;23.826;2024-03-22T00:52:29;93861.88;;;2.94;70.49
61870;BME280;47810;42.264;23.826;2024-03-22T00:54:56;93850.19;;;2.81;70.15
61870;BME280;47810;42.264;23.826;2024-03-22T00:57:51;93854.22;;;2.65;71.07
61870;BME280;47810;42.264;23.826;2024-03-22T01:00:33;93853.53;;;2.60;72.36
61870;BME280;47810;42.264;23.826;2024-03-22T01:05:51;93836.94;;;2.37;74.11
61870;BME280;47810;42.264;23.826;2024-03-22T01:08:17;93840.19;;;2.69;75.70
61870;BME280;47810;42.264;23.826;2024-03-22T01:11:07;93843.38;;;3.00;78.22
61870;BME280;47810;42.264;23.826;2024-03-22T01:13:50;93846.91;;;3.23;79.25
61870;BME280;47810;42.264;23.826;2024-03-22T01:16:18;93840.34;;;3.13;75.37
61870;BME280;47810;42.264;23.826;2024-03-22T01:18:45;93840.66;;;3.03;71.76
61870;BME280;47810;42.264;23.826;2024-03-22T01:21:38;93847.94;;;2.95;71.36
61870;BME280;47810;42.264;23.826;2024-03-22T01:24:11;93842.31;;;2.83;72.54
61870;BME280;47810;42.264;23.826;2024-03-22T01:26:54;93843.38;;;3.00;75.15
61870;BME280;47810;42.264;23.826;2024-03-22T01:29:35;93847.44;;;2.61;74.67
61870;BME280;47810;42.264;23.826;2024-03-22T01:32:09;93842.22;;;2.61;75.31
61870;BME280;47810;42.264;23.826;2024-03-22T01:34:40;93846.09;;;2.74;76.33
61870;BME280;47810;42.264;23.826;2024-03-22T01:37:25;93848.09;;;2.91;77.26
61870;BME280;47810;42.264;23.826;2024-03-22T01:40:08;93848.16;;;2.89;75.92
61870;BME280;47810;42.264;23.826;2024-03-22T01:42:55;93851.44;;;2.94;76.42
61870;BME280;47810;42.264;23.826;2024-03-22T01:45:21;93851.56;;;3.15;76.96
61870;BME280;47810;42.264;23.826;2024-03-22T01:47:54;93842.88;;;2.91;75.45
61870;BME280;47810;42.264;23.826;2024-03-22T01:50:36;93841.72;;;2.74;75.91
61870;BME280;47810;42.264;23.826;2024-03-22T01:53:19;93834.88;;;2.72;76.51
61870;BME280;47810;42.264;23.826;2024-03-22T01:58:44;93836.72;;;2.43;76.52
61870;BME280;47810;42.264;23.826;2024-03-22T02:01:11;93832.84;;;2.30;76.74
61870;BME280;47810;42.264;23.826;2024-03-22T02:03:38;93840.84;;;2.25;77.20
61870;BME280;47810;42.264;23.826;2024-03-22T02:06:04;93829.66;;;2.22;77.38
61870;BME280;47810;42.264;23.826;2024-03-22T02:11:22;93843.06;;;2.36;76.68
61870;BME280;47810;42.264;23.826;2024-03-22T02:17:58;93838.06;;;2.30;77.10
61870;BME280;47810;42.264;23.826;2024-03-22T02:20:33;93833.38;;;2.40;77.06
61870;BME280;47810;42.264;23.826;2024-03-22T02:23:01;93829.78;;;2.19;76.29
61870;BME280;47810;42.264;23.826;2024-03-22T02:25:27;93833.06;;;2.24;75.82
61870;BME280;47810;42.264;23.826;2024-03-22T02:28:13;93830.13;;;2.33;75.77
61870;BME280;47810;42.264;23.826;2024-03-22T02:30:50;93832.94;;;2.27;74.73
61870;BME280;47810;42.264;23.826;2024-03-22T02:33:26;93829.06;;;2.14;75.82
61870;BME280;47810;42.264;23.826;2024-03-22T02:35:52;93827.69;;;1.77;77.68
61870;BME280;47810;42.264;23.826;2024-03-22T02:45:35;93831.47;;;2.20;77.24
61870;BME280;47810;42.264;23.826;2024-03-22T02:48:10;93843.97;;;2.08;75.90
61870;BME280;47810;42.264;23.826;2024-03-22T02:50:41;93838.66;;;2.12;75.13
61870;BME280;47810;42.264;23.826;2024-03-22T02:53:12;93842.19;;;2.10;75.26
61870;BME280;47810;42.264;23.826;2024-03-22T02:55:45;93843.22;;;2.05;74.91
61870;BME280;47810;42.264;23.826;2024-03-22T02:58:20;93842.59;;;1.98;75.49
61870;BME280;47810;42.264;23.826;2024-03-22T03:00:49;93845.06;;;2.03;75.67
61870;BME280;47810;42.264;23.826;2024-03-22T03:03:22;93852.69;;;2.07;75.10
61870;BME280;47810;42.264;23.826;2024-03-22T03:05:47;93854.28;;;2.12;74.54
61870;BME280;47810;42.264;23.826;2024-03-22T03:08:21;93859.16;;;1.96;75.62
61870;BME280;47810;42.264;23.826;2024-03-22T03:10:56;93854.91;;;1.93;76.31
61870;BME280;47810;42.264;23.826;2024-03-22T03:13:31;93862.00;;;1.88;76.74
61870;BME280;47810;42.264;23.826;2024-03-22T03:16:03;93858.59;;;1.86;77.12
61870;BME280;47810;42.264;23.826;2024-03-22T03:18:33;93859.75;;;1.77;77.30
61870;BME280;47810;42.264;23.826;2024-03-22T03:21:19;93865.53;;;1.87;76.83
61870;BME280;47810;42.264;23.826;2024-03-22T03:27:40;93864.41;;;1.94;75.86
61870;BME280;47810;42.264;23.826;2024-03-22T03:33:21;93874.03;;;1.92;75.89
61870;BME280;47810;42.264;23.826;2024-03-22T03:35:51;93862.63;;;1.96;75.94
61870;BME280;47810;42.264;23.826;2024-03-22T03:38:53;93870.00;;;2.08;75.42
61870;BME280;47810;42.264;23.826;2024-03-22T03:41:28;93875.84;;;1.90;76.43
61870;BME280;47810;42.264;23.826;2024-03-22T03:43:59;93867.13;;;1.91;76.52
61870;BME280;47810;42.264;23.826;2024-03-22T03:46:32;93870.81;;;1.84;76.22
61870;BME280;47810;42.264;23.826;2024-03-22T03:49:04;93867.88;;;1.95;75.61
61870;BME280;47810;42.264;23.826;2024-03-22T03:51:30;93864.41;;;1.94;76.07
61870;BME280;47810;42.264;23.826;2024-03-22T03:53:57;93863.59;;;1.92;75.56
61870;BME280;47810;42.264;23.826;2024-03-22T03:56:41;93868.41;;;2.04;75.08
61870;BME280;47810;42.264;23.826;2024-03-22T03:59:13;93876.66;;;2.19;75.43
61870;BME280;47810;42.264;23.826;2024-03-22T04:04:42;93873.91;;;1.95;76.67
61870;BME280;47810;42.264;23.826;2024-03-22T04:07:07;93882.06;;;2.13;79.20
61870;BME280;47810;42.264;23.826;2024-03-22T04:09:48;93879.53;;;2.36;79.80
61870;BME280;47810;42.264;23.826;2024-03-22T04:18:58;93894.88;;;2.70;78.47
61870;BME280;47810;42.264;23.826;2024-03-22T04:24:36;93900.34;;;2.38;75.75
61870;BME280;47810;42.264;23.826;2024-03-22T04:27:02;93905.25;;;2.20;76.18
61870;BME280;47810;42.264;23.826;2024-03-22T04:29:38;93902.44;;;1.72;78.36
61870;BME280;47810;42.264;23.826;2024-03-22T04:35:04;93898.44;;;1.60;78.75
61870;BME280;47810;42.264;23.826;2024-03-22T04:37:53;93903.66;;;1.32;80.63
61870;BME280;47810;42.264;23.826;2024-03-22T04:40:19;93909.63;;;1.34;80.95
61870;BME280;47810;42.264;23.826;2024-03-22T04:42:55;93908.75;;;1.35;80.73
61870;BME280;47810;42.264;23.826;2024-03-22T04:45:21;93900.94;;;1.65;79.18
61870;BME280;47810;42.264;23.826;2024-03-22T04:48:01;93908.97;;;1.85;78.29
61870;BME280;47810;42.264;23.826;2024-03-22T04:50:28;93918.16;;;1.97;79.45
61870;BME280;47810;42.264;23.826;2024-03-22T04:52:57;93913.22;;;2.16;80.31
61870;BME280;47810;42.264;23.826;2024-03-22T04:55:32;93922.13;;;2.35;79.86
61870;BME280;47810;42.264;23.826;2024-03-22T04:58:02;93922.13;;;2.35;78.00
61870;BME280;47810;42.264;23.826;2024-03-22T05:00:28;93917.22;;;2.26;76.33
61870;BME280;47810;42.264;23.826;2024-03-22T05:02:56;93911.91;;;2.29;77.48
61870;BME280;47810;42.264;23.826;2024-03-22T05:05:22;93919.44;;;2.38;76.71
61870;BME280;47810;42.264;23.826;2024-03-22T05:07:50;93927.72;;;2.49;79.80
61870;BME280;47810;42.264;23.826;2024-03-22T05:10:16;93925.53;;;2.64;80.13
61870;BME280;47810;42.264;23.826;2024-03-22T05:12:47;93921.06;;;2.67;79.57
61870;BME280;47810;42.264;23.826;2024-03-22T05:15:21;93931.41;;;2.69;78.00
61870;BME280;47810;42.264;23.826;2024-03-22T05:17:49;93915.31;;;2.58;76.51
61870;BME280;47810;42.264;23.826;2024-03-22T05:20:27;93928.41;;;2.81;78.78
61870;BME280;47810;42.264;23.826;2024-03-22T05:22:54;93923.13;;;2.83;79.05
61870;BME280;47810;42.264;23.826;2024-03-22T05:25:29;93922.38;;;2.79;79.06
61870;BME280;47810;42.264;23.826;2024-03-22T05:27:54;93911.16;;;2.77;78.72
61870;BME280;47810;42.264;23.826;2024-03-22T05:30:23;93931.38;;;2.70;78.41
61870;BME280;47810;42.264;23.826;2024-03-22T05:32:56;93930.19;;;2.79;79.01
61870;BME280;47810;42.264;23.826;2024-03-22T05:35:27;93930.69;;;2.90;78.17
61870;BME280;47810;42.264;23.826;2024-03-22T05:38:13;93933.72;;;2.78;75.44
61870;BME280;47810;42.264;23.826;2024-03-22T05:40:40;93931.72;;;2.60;76.29
61870;BME280;47810;42.264;23.826;2024-03-22T05:43:09;93936.66;;;2.42;77.79
61870;BME280;47810;42.264;23.826;2024-03-22T05:45:36;93936.38;;;2.50;80.15
61870;BME280;47810;42.264;23.826;2024-03-22T05:48:24;93939.22;;;2.69;80.87
61870;BME280;47810;42.264;23.826;2024-03-22T05:50:54;93942.66;;;2.71;77.14
61870;BME280;47810;42.264;23.826;2024-03-22T05:53:28;93953.06;;;2.71;77.94
61870;BME280;47810;42.264;23.826;2024-03-22T05:55:55;93947.44;;;2.83;77.67
61870;BME280;47810;42.264;23.826;2024-03-22T05:58:22;93958.56;;;2.88;76.30
61870;BME280;47810;42.264;23.826;2024-03-22T06:00:49;93961.56;;;3.02;78.25
61870;BME280;47810;42.264;23.826;2024-03-22T06:03:18;93963.97;;;3.09;77.60
61870;BME280;47810;42.264;23.826;2024-03-22T06:05:44;93969.06;;;3.12;75.75
61870;BME280;47810;42.264;23.826;2024-03-22T06:08:17;93965.34;;;3.19;75.85
61870;BME280;47810;42.264;23.826;2024-03-22T06:10:49;93969.41;;;3.26;75.03
61870;BME280;47810;42.264;23.826;2024-03-22T06:13:16;93970.97;;;3.32;74.85
61870;BME280;47810;42.264;23.826;2024-03-22T06:15:50;93962.97;;;3.36;75.31
61870;BME280;47810;42.264;23.826;2024-03-22T06:18:19;93971.50;;;3.41;74.63
61870;BME280;47810;42.264;23.826;2024-03-22T06:20:46;93969.53;;;3.46;75.71
61870;BME280;47810;42.264;23.826;2024-03-22T06:23:17;93969.31;;;3.53;75.01
61870;BME280;47810;42.264;23.826;2024-03-22T06:25:53;93977.53;;;3.67;74.72
61870;BME280;47810;42.264;23.826;2024-03-22T06:28:19;93978.16;;;3.73;75.67
61870;BME280;47810;42.264;23.826;2024-03-22T06:30:45;93981.31;;;3.82;76.45
61870;BME280;47810;42.264;23.826;2024-03-22T06:33:21;93987.03;;;3.91;77.05
61870;BME280;47810;42.264;23.826;2024-03-22T06:35:50;93976.34;;;3.97;77.20
61870;BME280;47810;42.264;23.826;2024-03-22T06:38:16;93984.53;;;4.12;76.22
61870;BME280;47810;42.264;23.826;2024-03-22T06:40:42;93975.66;;;4.16;75.90
61870;BME280;47810;42.264;23.826;2024-03-22T06:43:08;93986.84;;;4.41;72.91
61870;BME280;47810;42.264;23.826;2024-03-22T06:45:36;93983.63;;;4.57;71.67
61870;BME280;47810;42.264;23.826;2024-03-22T06:48:04;93985.75;;;4.69;68.48
61870;BME280;47810;42.264;23.826;2024-03-22T06:50:30;93995.97;;;4.75;68.92
61870;BME280;47810;42.264;23.826;2024-03-22T06:52:56;93992.19;;;4.82;67.75
61870;BME280;47810;42.264;23.826;2024-03-22T06:55:22;93983.16;;;4.89;66.88
61870;BME280;47810;42.264;23.826;2024-03-22T06:58:02;93990.50;;;5.02;67.31
61870;BME280;47810;42.264;23.826;2024-03-22T07:00:40;93989.59;;;5.23;67.71
61870;BME280;47810;42.264;23.826;2024-03-22T07:03:06;93988.53;;;5.48;65.42
61870;BME280;47810;42.264;23.826;2024-03-22T07:05:32;93995.59;;;5.66;65.87
61870;BME280;47810;42.264;23.826;2024-03-22T07:07:59;93987.69;;;5.87;64.52
61870;BME280;47810;42.264;23.826;2024-03-22T07:10:25;93987.03;;;6.02;62.66
61870;BME280;47810;42.264;23.826;2024-03-22T07:19:28;93989.34;;;6.82;59.46
61870;BME280;47810;42.264;23.826;2024-03-22T07:21:56;93983.50;;;7.12;59.32
61870;BME280;47810;42.264;23.826;2024-03-22T07:24:30;93985.91;;;7.34;58.12
61870;BME280;47810;42.264;23.826;2024-03-22T07:26:56;93976.00;;;7.56;56.77
61870;BME280;47810;42.264;23.826;2024-03-22T07:29:23;93980.50;;;7.87;57.17
61870;BME280;47810;42.264;23.826;2024-03-22T07:31:50;93990.72;;;8.09;53.23
61870;BME280;47810;42.264;23.826;2024-03-22T07:34:18;93979.63;;;8.36;53.77
61870;BME280;47810;42.264;23.826;2024-03-22T07:36:51;93981.69;;;8.62;53.72
61870;BME280;47810;42.264;23.826;2024-03-22T07:39:22;93973.44;;;9.00;54.79
61870;BME280;47810;42.264;23.826;2024-03-22T07:41:55;93972.28;;;9.50;54.29
61870;BME280;47810;42.264;23.826;2024-03-22T07:44:29;93979.47;;;9.91;51.12
61870;BME280;47810;42.264;23.826;2024-03-22T07:47:03;93972.91;;;9.98;46.48
61870;BME280;47810;42.264;23.826;2024-03-22T07:49:38;93971.47;;;10.36;50.38
61870;BME280;47810;42.264;23.826;2024-03-22T07:52:08;93976.13;;;10.73;46.82
61870;BME280;47810;42.264;23.826;2024-03-22T07:54:38;93978.38;;;10.80;45.49
61870;BME280;47810;42.264;23.826;2024-03-22T07:57:05;93978.38;;;11.07;48.69
61870;BME280;47810;42.264;23.826;2024-03-22T07:59:33;93984.44;;;10.94;45.83
61870;BME280;47810;42.264;23.826;2024-03-22T08:02:09;93992.03;;;10.86;45.49
61870;BME280;47810;42.264;23.826;2024-03-22T08:04:40;93980.97;;;11.21;46.41
61870;BME280;47810;42.264;23.826;2024-03-22T08:07:06;93994.50;;;11.29;44.79
61870;BME280;47810;42.264;23.826;2024-03-22T08:09:33;93985.81;;;11.67;43.95
61870;BME280;47810;42.264;23.826;2024-03-22T08:12:01;93999.53;;;12.12;43.99
61870;BME280;47810;42.264;23.826;2024-03-22T08:14:32;93995.50;;;12.32;42.99
61870;BME280;47810;42.264;23.826;2024-03-22T08:16:58;93994.84;;;12.54;39.76
61870;BME280;47810;42.264;23.826;2024-03-22T08:19:25;93990.28;;;12.56;37.98
61870;BME280;47810;42.264;23.826;2024-03-22T08:22:01;93992.13;;;12.79;43.00
61870;BME280;47810;42.264;23.826;2024-03-22T08:24:40;93995.16;;;12.99;40.65
61870;BME280;47810;42.264;23.826;2024-03-22T08:27:30;93989.94;;;13.10;40.70
61870;BME280;47810;42.264;23.826;2024-03-22T08:29:59;93979.38;;;13.21;38.90
61870;BME280;47810;42.264;23.826;2024-03-22T08:32:45;93984.00;;;13.55;41.11
61870;BME280;47810;42.264;23.826;2024-03-22T08:38:12;93987.53;;;13.31;39.50
61870;BME280;47810;42.264;23.826;2024-03-22T08:40:53;93974.03;;;13.10;39.90
61870;BME280;47810;42.264;23.826;2024-03-22T08:43:25;93982.44;;;13.52;36.66
61870;BME280;47810;42.264;23.826;2024-03-22T08:45:58;93988.38;;;13.56;39.81
61870;BME280;47810;42.264;23.826;2024-03-22T08:48:38;93987.06;;;13.96;37.04
61870;BME280;47810;42.264;23.826;2024-03-22T08:54:33;93979.13;;;13.72;39.34
61870;BME280;47810;42.264;23.826;2024-03-22T08:56:59;93975.13;;;14.25;37.82
61870;BME280;47810;42.264;23.826;2024-03-22T08:59:33;93975.97;;;14.36;41.03
61870;BME280;47810;42.264;23.826;2024-03-22T09:02:08;93970.31;;;14.97;36.60
61870;BME280;47810;42.264;23.826;2024-03-22T09:04:34;93970.50;;;15.17;34.46
61870;BME280;47810;42.264;23.826;2024-03-22T09:07:00;93973.69;;;14.88;36.49
61870;BME280;47810;42.264;23.826;2024-03-22T09:09:38;93967.22;;;14.58;34.02
61870;BME280;47810;42.264;23.826;2024-03-22T09:12:16;93961.09;;;14.00;35.83
61870;BME280;47810;42.264;23.826;2024-03-22T09:21:28;93968.38;;;15.75;33.26
61870;BME280;47810;42.264;23.826;2024-03-22T09:23:59;93963.03;;;15.75;35.44
61870;BME280;47810;42.264;23.826;2024-03-22T09:26:32;93961.63;;;16.13;34.07
61870;BME280;47810;42.264;23.826;2024-03-22T09:29:03;93965.22;;;16.02;34.01
61870;BME280;47810;42.264;23.826;2024-03-22T09:31:35;93963.78;;;16.19;31.84
61870;BME280;47810;42.264;23.826;2024-03-22T09:34:06;93961.13;;;15.77;31.98
61870;BME280;47810;42.264;23.826;2024-03-22T09:36:39;93954.59;;;14.94;35.77
61870;BME280;47810;42.264;23.826;2024-03-22T09:39:11;93944.38;;;15.22;36.82
61870;BME280;47810;42.264;23.826;2024-03-22T09:41:43;93953.78;;;15.26;32.42
61870;BME280;47810;42.264;23.826;2024-03-22T09:44:15;93957.84;;;15.94;34.58
61870;BME280;47810;42.264;23.826;2024-03-22T09:46:48;93955.50;;;16.22;33.43
61870;BME280;47810;42.264;23.826;2024-03-22T09:49:21;93948.75;;;15.76;30.96
61870;BME280;47810;42.264;23.826;2024-03-22T09:51:51;93944.38;;;16.38;33.81
61870;BME280;47810;42.264;23.826;2024-03-22T09:54:17;93934.78;;;16.87;32.41
61870;BME280;47810;42.264;23.826;2024-03-22T09:56:48;93951.25;;;16.71;32.36
61870;BME280;47810;42.264;23.826;2024-03-22T09:59:19;93947.66;;;16.51;33.09
61870;BME280;47810;42.264;23.826;2024-03-22T10:01:48;93952.22;;;16.39;31.72
61870;BME280;47810;42.264;23.826;2024-03-22T10:04:33;93946.06;;;16.18;32.81
61870;BME280;47810;42.264;23.826;2024-03-22T10:07:04;93937.81;;;16.42;33.00
61870;BME280;47810;42.264;23.826;2024-03-22T10:09:34;93950.72;;;16.16;33.46
61870;BME280;47810;42.264;23.826;2024-03-22T10:12:03;93936.94;;;16.11;32.92
61870;BME280;47810;42.264;23.826;2024-03-22T10:14:29;93947.72;;;16.61;32.79
61870;BME280;47810;42.264;23.826;2024-03-22T10:17:08;93931.63;;;17.41;31.92
61870;BME280;47810;42.264;23.826;2024-03-22T10:19:48;93937.72;;;17.82;30.55
61870;BME280;47810;42.264;23.826;2024-03-22T10:22:18;93930.94;;;17.59;31.35
61870;BME280;47810;42.264;23.826;2024-03-22T10:27:59;93926.13;;;17.33;29.08
61870;BME280;47810;42.264;23.826;2024-03-22T10:30:29;93927.56;;;17.76;31.32
61870;BME280;47810;42.264;23.826;2024-03-22T10:32:58;93921.38;;;18.05;30.34
61870;BME280;47810;42.264;23.826;2024-03-22T10:35:43;93912.97;;;17.80;31.77
61870;BME280;47810;42.264;23.826;2024-03-22T10:38:26;93926.25;;;15.80;32.17
61870;BME280;47810;42.264;23.826;2024-03-22T10:40:53;93913.59;;;16.54;32.37
61870;BME280;47810;42.264;23.826;2024-03-22T10:43:20;93910.53;;;16.69;29.46
61870;BME280;47810;42.264;23.826;2024-03-22T10:46:01;93909.41;;;16.62;30.72
61870;BME280;47810;42.264;23.826;2024-03-22T10:48:30;93905.66;;;17.73;29.92
61870;BME280;47810;42.264;23.826;2024-03-22T10:51:06;93905.00;;;18.27;29.23
61870;BME280;47810;42.264;23.826;2024-03-22T10:53:41;93905.38;;;18.79;28.50
61870;BME280;47810;42.264;23.826;2024-03-22T10:56:12;93897.72;;;18.57;29.98
61870;BME280;47810;42.264;23.826;2024-03-22T10:58:41;93890.69;;;18.09;28.88
61870;BME280;47810;42.264;23.826;2024-03-22T11:01:22;93896.38;;;17.48;30.73
61870;BME280;47810;42.264;23.826;2024-03-22T11:07:21;93889.78;;;16.72;33.24
61870;BME280;47810;42.264;23.826;2024-03-22T11:10:19;93889.34;;;17.27;30.60
61870;BME280;47810;42.264;23.826;2024-03-22T11:13:04;93887.03;;;16.84;31.27
61870;BME280;47810;42.264;23.826;2024-03-22T11:15:33;93882.31;;;16.57;31.36
61870;BME280;47810;42.264;23.826;2024-03-22T11:18:03;93873.44;;;16.46;30.30
61870;BME280;47810;42.264;23.826;2024-03-22T11:20:37;93882.47;;;15.94;32.23
61870;BME280;47810;42.264;23.826;2024-03-22T11:23:09;93876.09;;;15.11;33.26
61870;BME280;47810;42.264;23.826;2024-03-22T11:25:41;93881.22;;;14.26;34.36
61870;BME280;47810;42.264;23.826;2024-03-22T11:28:08;93864.13;;;14.84;33.50
61870;BME280;47810;42.264;23.826;2024-03-22T11:30:37;93868.38;;;15.61;32.08
61870;BME280;47810;42.264;23.826;2024-03-22T11:33:17;93877.53;;;16.20;31.18
61870;BME280;47810;42.264;23.826;2024-03-22T11:35:45;93869.28;;;15.92;31.06
61870;BME280;47810;42.264;23.826;2024-03-22T11:38:12;93869.44;;;16.00;32.55
61870;BME280;47810;42.264;23.826;2024-03-22T11:41:00;93852.84;;;17.08;32.15
61870;BME280;47810;42.264;23.826;2024-03-22T11:43:29;93862.94;;;17.63;31.00
61870;BME280;47810;42.264;23.826;2024-03-22T11:45:57;93860.56;;;17.40;30.33
61870;BME280;47810;42.264;23.826;2024-03-22T11:48:30;93859.84;;;17.38;29.50
61870;BME280;47810;42.264;23.826;2024-03-22T11:51:00;93861.22;;;16.94;30.67
61870;BME280;47810;42.264;23.826;2024-03-22T11:53:35;93858.47;;;16.15;30.92
61870;BME280;47810;42.264;23.826;2024-03-22T11:56:08;93860.31;;;15.51;30.49
61870;BME280;47810;42.264;23.826;2024-03-22T11:58:40;93856.72;;;16.04;33.40
61870;BME280;47810;42.264;23.826;2024-03-22T12:01:09;93857.03;;;16.11;29.93
61870;BME280;47810;42.264;23.826;2024-03-22T12:03:36;93855.56;;;15.97;30.41
61870;BME280;47810;42.264;23.826;2024-03-22T12:06:04;93844.59;;;15.48;30.52
61870;BME280;47810;42.264;23.826;2024-03-22T12:08:30;93845.19;;;15.73;32.80
61870;BME280;47810;42.264;23.826;2024-03-22T12:11:19;93843.41;;;16.44;32.88
61870;BME280;47810;42.264;23.826;2024-03-22T12:13:51;93839.91;;;17.04;28.49
61870;BME280;47810;42.264;23.826;2024-03-22T12:16:24;93838.19;;;17.61;29.45
61870;BME280;47810;42.264;23.826;2024-03-22T12:18:56;93840.59;;;17.44;29.26
61870;BME280;47810;42.264;23.826;2024-03-22T12:21:28;93840.19;;;17.10;27.69
61870;BME280;47810;42.264;23.826;2024-03-22T12:23:59;93840.44;;;17.36;29.59
61870;BME280;47810;42.264;23.826;2024-03-22T12:26:34;93834.38;;;17.83;28.44
61870;BME280;47810;42.264;23.826;2024-03-22T12:29:00;93821.09;;;17.05;28.08
61870;BME280;47810;42.264;23.826;2024-03-22T12:31:37;93814.88;;;16.75;31.55
61870;BME280;47810;42.264;23.826;2024-03-22T12:34:10;93820.66;;;16.40;30.22
61870;BME280;47810;42.264;23.826;2024-03-22T12:36:42;93822.34;;;16.32;30.82
61870;BME280;47810;42.264;23.826;2024-03-22T12:39:17;93824.03;;;15.71;30.66
61870;BME280;47810;42.264;23.826;2024-03-22T12:41:45;93818.56;;;15.94;31.43
61870;BME280;47810;42.264;23.826;2024-03-22T12:44:13;93811.91;;;16.09;30.76
61870;BME280;47810;42.264;23.826;2024-03-22T12:46:51;93811.97;;;15.67;30.76
61870;BME280;47810;42.264;23.826;2024-03-22T12:49:23;93810.84;;;15.49;31.91
61870;BME280;47810;42.264;23.826;2024-03-22T12:51:55;93805.56;;;15.70;31.84
61870;BME280;47810;42.264;23.826;2024-03-22T12:54:28;93793.22;;;15.27;30.69
61870;BME280;47810;42.264;23.826;2024-03-22T12:56:58;93798.34;;;16.22;31.74
61870;BME280;47810;42.264;23.826;2024-03-22T12:59:31;93800.66;;;16.05;31.23
61870;BME280;47810;42.264;23.826;2024-03-22T13:02:04;93803.09;;;15.88;32.03
61870;BME280;47810;42.264;23.826;2024-03-22T13:04:35;93804.88;;;15.56;31.48
61870;BME280;47810;42.264;23.826;2024-03-22T13:07:07;93807.72;;;15.65;31.35
61870;BME280;47810;42.264;23.826;2024-03-22T13:09:40;93800.31;;;15.47;31.72
61870;BME280;47810;42.264;23.826;2024-03-22T13:12:12;93797.63;;;15.79;32.35
61870;BME280;47810;42.264;23.826;2024-03-22T13:14:46;93793.91;;;16.01;31.85
61870;BME280;47810;42.264;23.826;2024-03-22T13:17:15;93786.38;;;16.06;32.16
61870;BME280;47810;42.264;23.826;2024-03-22T13:19:45;93787.22;;;15.76;30.49
61870;BME280;47810;42.264;23.826;2024-03-22T13:22:12;93787.97;;;15.88;30.93
61870;BME280;47810;42.264;23.826;2024-03-22T13:24:56;93781.38;;;15.41;31.10
61870;BME280;47810;42.264;23.826;2024-03-22T13:27:25;93777.56;;;15.33;32.07
61870;BME280;47810;42.264;23.826;2024-03-22T13:29:57;93779.31;;;15.02;33.30
61870;BME280;47810;42.264;23.826;2024-03-22T13:32:25;93777.69;;;15.11;33.20
61870;BME280;47810;42.264;23.826;2024-03-22T13:35:02;93773.34;;;15.31;33.97
61870;BME280;47810;42.264;23.826;2024-03-22T13:37:46;93768.50;;;15.88;31.62
61870;BME280;47810;42.264;23.826;2024-03-22T13:40:12;93775.38;;;15.90;31.41
61870;BME280;47810;42.264;23.826;2024-03-22T13:42:39;93776.41;;;15.68;32.60
61870;BME280;47810;42.264;23.826;2024-03-22T13:45:15;93766.34;;;15.81;32.89
61870;BME280;47810;42.264;23.826;2024-03-22T13:47:44;93768.31;;;16.20;32.09
61870;BME280;47810;42.264;23.826;2024-03-22T13:50:15;93762.78;;;16.62;30.37
61870;BME280;47810;42.264;23.826;2024-03-22T13:52:46;93760.50;;;16.28;30.32
61870;BME280;47810;42.264;23.826;2024-03-22T13:55:19;93761.50;;;15.87;30.09
61870;BME280;47810;42.264;23.826;2024-03-22T13:57:49;93764.97;;;15.14;31.55
61870;BME280;47810;42.264;23.826;2024-03-22T14:00:28;93761.72;;;15.53;34.26
61870;BME280;47810;42.264;23.826;2024-03-22T14:02:56;93752.53;;;16.47;30.86
61870;BME280;47810;42.264;23.826;2024-03-22T14:05:28;93758.19;;;17.03;30.82
61870;BME280;47810;42.264;23.826;2024-03-22T14:08:06;93758.94;;;17.52;29.57
61870;BME280;47810;42.264;23.826;2024-03-22T14:10:33;93752.72;;;17.80;28.44
61870;BME280;47810;42.264;23.826;2024-03-22T14:13:07;93745.84;;;17.78;28.41
61870;BME280;47810;42.264;23.826;2024-03-22T14:15:36;93750.63;;;18.11;29.08
61870;BME280;47810;42.264;23.826;2024-03-22T14:18:11;93750.72;;;17.92;28.94
61870;BME280;47810;42.264;23.826;2024-03-22T14:20:42;93750.88;;;17.71;28.04
61870;BME280;47810;42.264;23.826;2024-03-22T14:23:14;93747.19;;;17.44;27.71
61870;BME280;47810;42.264;23.826;2024-03-22T14:25:51;93742.59;;;17.74;28.84
61870;BME280;47810;42.264;23.826;2024-03-22T14:28:19;93735.88;;;17.70;29.57
61870;BME280;47810;42.264;23.826;2024-03-22T14:30:53;93742.72;;;17.16;27.21
61870;BME280;47810;42.264;23.826;2024-03-22T14:33:23;93743.59;;;16.87;30.25